sensor_id;sensor_type;location;lat;lon;timestamp;P1;durP1;ratioP1;P2;durP2;ratioP2
11829;SDS011;5972;42.134;24.718;2024-01-30T00:02:06;6.17;;;4.87;;
11829;SDS011;5972;42.134;24.718;2024-01-30T00:04:33;5.97;;;4.60;;
11829;SDS011;5972;42.134;24.718;2024-01-30T00:07:00;5.80;;;4.80;;
11829;SDS011;5972;42.134;24.718;2024-01-30T00:09:27;6.50;;;4.97;;
11829;SDS011;5972;42.134;24.718;2024-01-30T00:11:56;8.83;;;5.40;;
11829;SDS011;5972;42.134;24.718;2024-01-30T00:14:23;7.30;;;4.80;;
11829;SDS011;5972;42.134;24.718;2024-01-30T00:16:50;7.10;;;4.67;;
11829;SDS011;5972;42.134;24.718;2024-01-30T00:19:18;8.00;;;4.43;;
11829;SDS011;5972;42.134;24.718;2024-01-30T00:21:45;6.90;;;4.97;;
11829;SDS011;5972;42.134;24.718;2024-01-30T00:24:12;6.53;;;4.77;;
11829;SDS011;5972;42.134;24.718;2024-01-30T00:26:38;7.80;;;5.10;;
11829;SDS011;5972;42.134;24.718;2024-01-30T00:29:07;6.63;;;4.57;;
11829;SDS011;5972;42.134;24.718;2024-01-30T00:31:34;7.17;;;4.67;;
11829;SDS011;5972;42.134;24.718;2024-01-30T00:34:01;7.37;;;5.20;;
11829;SDS011;5972;42.134;24.718;2024-01-30T00:36:28;6.60;;;4.80;;
11829;SDS011;5972;42.134;24.718;2024-01-30T00:38:56;6.90;;;4.50;;
11829;SDS011;5972;42.134;24.718;2024-01-30T00:41:23;7.57;;;5.40;;
11829;SDS011;5972;42.134;24.718;2024-01-30T00:43:50;7.03;;;4.97;;
11829;SDS011;5972;42.134;24.718;2024-01-30T00:46:18;8.63;;;5.40;;
11829;SDS011;5972;42.134;24.718;2024-01-30T00:48:45;7.57;;;4.90;;
11829;SDS011;5972;42.134;24.718;2024-01-30T00:51:12;10.00;;;5.40;;
11829;SDS011;5972;42.134;24.718;2024-01-30T00:53:40;8.70;;;5.80;;
11829;SDS011;5972;42.134;24.718;2024-01-30T00:56:07;7.20;;;5.80;;
11829;SDS011;5972;42.134;24.718;2024-01-30T00:58:34;9.07;;;5.40;;
11829;SDS011;5972;42.134;24.718;2024-01-30T01:01:01;7.30;;;4.90;;
11829;SDS011;5972;42.134;24.718;2024-01-30T01:03:29;7.77;;;5.13;;
11829;SDS011;5972;42.134;24.718;2024-01-30T01:05:56;9.53;;;5.53;;
11829;SDS011;5972;42.134;24.718;2024-01-30T01:08:23;7.97;;;5.90;;
11829;SDS011;5972;42.134;24.718;2024-01-30T01:10:50;8.57;;;5.50;;
11829;SDS011;5972;42.134;24.718;2024-01-30T01:13:17;9.37;;;5.40;;
11829;SDS011;5972;42.134;24.718;2024-01-30T01:15:44;10.40;;;5.90;;
11829;SDS011;5972;42.134;24.718;2024-01-30T01:18:11;10.53;;;5.47;;
11829;SDS011;5972;42.134;24.718;2024-01-30T01:20:40;7.93;;;5.33;;
11829;SDS011;5972;42.134;24.718;2024-01-30T01:23:07;9.40;;;6.30;;
11829;SDS011;5972;42.134;24.718;2024-01-30T01:25:34;9.57;;;5.90;;
11829;SDS011;5972;42.134;24.718;2024-01-30T01:28:01;6.97;;;5.57;;
11829;SDS011;5972;42.134;24.718;2024-01-30T01:30:28;7.03;;;5.43;;
11829;SDS011;5972;42.134;24.718;2024-01-30T01:32:55;8.47;;;5.80;;
11829;SDS011;5972;42.134;24.718;2024-01-30T01:35:26;8.60;;;5.97;;
11829;SDS011;5972;42.134;24.718;2024-01-30T01:37:54;8.13;;;5.63;;
11829;SDS011;5972;42.134;24.718;2024-01-30T01:40:22;8.90;;;4.90;;
11829;SDS011;5972;42.134;24.718;2024-01-30T01:42:49;8.50;;;5.10;;
11829;SDS011;5972;42.134;24.718;2024-01-30T01:45:17;6.57;;;5.37;;
11829;SDS011;5972;42.134;24.718;2024-01-30T01:47:45;9.17;;;6.10;;
11829;SDS011;5972;42.134;24.718;2024-01-30T01:50:15;7.50;;;5.33;;
11829;SDS011;5972;42.134;24.718;2024-01-30T01:52:44;12.83;;;5.93;;
11829;SDS011;5972;42.134;24.718;2024-01-30T01:55:14;9.83;;;5.57;;
11829;SDS011;5972;42.134;24.718;2024-01-30T01:57:43;11.23;;;6.23;;
11829;SDS011;5972;42.134;24.718;2024-01-30T02:00:11;8.43;;;5.40;;
11829;SDS011;5972;42.134;24.718;2024-01-30T02:02:40;10.17;;;5.63;;
11829;SDS011;5972;42.134;24.718;2024-01-30T02:05:10;9.40;;;6.23;;
11829;SDS011;5972;42.134;24.718;2024-01-30T02:07:37;10.43;;;6.90;;
11829;SDS011;5972;42.134;24.718;2024-01-30T02:10:05;11.17;;;6.53;;
11829;SDS011;5972;42.134;24.718;2024-01-30T02:12:36;9.70;;;6.50;;
11829;SDS011;5972;42.134;24.718;2024-01-30T02:15:03;8.50;;;5.90;;
11829;SDS011;5972;42.134;24.718;2024-01-30T02:17:33;9.43;;;6.20;;
11829;SDS011;5972;42.134;24.718;2024-01-30T02:20:00;11.53;;;6.07;;
11829;SDS011;5972;42.134;24.718;2024-01-30T02:22:30;12.17;;;6.70;;
11829;SDS011;5972;42.134;24.718;2024-01-30T02:24:59;10.10;;;7.30;;
11829;SDS011;5972;42.134;24.718;2024-01-30T02:27:26;9.37;;;6.60;;
11829;SDS011;5972;42.134;24.718;2024-01-30T02:29:53;11.10;;;6.90;;
11829;SDS011;5972;42.134;24.718;2024-01-30T02:32:20;8.97;;;6.60;;
11829;SDS011;5972;42.134;24.718;2024-01-30T02:34:47;10.33;;;6.83;;
11829;SDS011;5972;42.134;24.718;2024-01-30T02:37:14;12.97;;;7.27;;
11829;SDS011;5972;42.134;24.718;2024-01-30T02:39:44;12.27;;;7.17;;
11829;SDS011;5972;42.134;24.718;2024-01-30T02:42:11;11.80;;;6.67;;
11829;SDS011;5972;42.134;24.718;2024-01-30T02:44:38;8.60;;;6.33;;
11829;SDS011;5972;42.134;24.718;2024-01-30T02:47:05;10.83;;;6.53;;
11829;SDS011;5972;42.134;24.718;2024-01-30T02:49:32;11.37;;;6.33;;
11829;SDS011;5972;42.134;24.718;2024-01-30T02:51:59;7.77;;;6.07;;
11829;SDS011;5972;42.134;24.718;2024-01-30T02:54:26;10.07;;;6.80;;
11829;SDS011;5972;42.134;24.718;2024-01-30T02:56:54;10.97;;;6.60;;
11829;SDS011;5972;42.134;24.718;2024-01-30T02:59:21;9.17;;;6.60;;
11829;SDS011;5972;42.134;24.718;2024-01-30T03:01:48;9.80;;;6.43;;
11829;SDS011;5972;42.134;24.718;2024-01-30T03:04:15;11.40;;;6.97;;
11829;SDS011;5972;42.134;24.718;2024-01-30T03:06:44;11.63;;;6.97;;
11829;SDS011;5972;42.134;24.718;2024-01-30T03:09:12;13.50;;;6.67;;
11829;SDS011;5972;42.134;24.718;2024-01-30T03:11:39;9.80;;;6.87;;
11829;SDS011;5972;42.134;24.718;2024-01-30T03:14:08;11.17;;;7.50;;
11829;SDS011;5972;42.134;24.718;2024-01-30T03:16:36;10.93;;;7.03;;
11829;SDS011;5972;42.134;24.718;2024-01-30T03:19:03;10.23;;;6.93;;
11829;SDS011;5972;42.134;24.718;2024-01-30T03:21:31;10.13;;;7.10;;
11829;SDS011;5972;42.134;24.718;2024-01-30T03:23:58;10.83;;;6.90;;
11829;SDS011;5972;42.134;24.718;2024-01-30T03:26:25;9.73;;;6.97;;
11829;SDS011;5972;42.134;24.718;2024-01-30T03:28:52;16.10;;;8.27;;
11829;SDS011;5972;42.134;24.718;2024-01-30T03:31:20;15.57;;;8.90;;
11829;SDS011;5972;42.134;24.718;2024-01-30T03:33:47;10.07;;;6.67;;
11829;SDS011;5972;42.134;24.718;2024-01-30T03:36:15;11.87;;;7.03;;
11829;SDS011;5972;42.134;24.718;2024-01-30T03:38:42;8.57;;;6.93;;
11829;SDS011;5972;42.134;24.718;2024-01-30T03:41:09;11.60;;;6.67;;
11829;SDS011;5972;42.134;24.718;2024-01-30T03:43:36;8.60;;;6.20;;
11829;SDS011;5972;42.134;24.718;2024-01-30T03:46:03;10.33;;;6.57;;
11829;SDS011;5972;42.134;24.718;2024-01-30T03:48:32;10.53;;;7.27;;
11829;SDS011;5972;42.134;24.718;2024-01-30T03:50:59;10.07;;;6.50;;
11829;SDS011;5972;42.134;24.718;2024-01-30T03:53:27;10.47;;;6.97;;
11829;SDS011;5972;42.134;24.718;2024-01-30T03:55:54;10.33;;;6.30;;
11829;SDS011;5972;42.134;24.718;2024-01-30T03:58:21;11.73;;;7.60;;
11829;SDS011;5972;42.134;24.718;2024-01-30T04:00:48;12.67;;;7.20;;
11829;SDS011;5972;42.134;24.718;2024-01-30T04:03:15;10.63;;;7.03;;
11829;SDS011;5972;42.134;24.718;2024-01-30T04:05:43;10.33;;;7.20;;
11829;SDS011;5972;42.134;24.718;2024-01-30T04:08:11;13.03;;;7.60;;
11829;SDS011;5972;42.134;24.718;2024-01-30T04:10:38;11.07;;;7.07;;
11829;SDS011;5972;42.134;24.718;2024-01-30T04:13:05;13.90;;;7.60;;
11829;SDS011;5972;42.134;24.718;2024-01-30T04:15:32;10.87;;;7.17;;
11829;SDS011;5972;42.134;24.718;2024-01-30T04:18:00;11.30;;;7.23;;
11829;SDS011;5972;42.134;24.718;2024-01-30T04:20:27;14.40;;;8.27;;
11829;SDS011;5972;42.134;24.718;2024-01-30T04:22:55;10.70;;;7.60;;
11829;SDS011;5972;42.134;24.718;2024-01-30T04:25:22;17.63;;;7.63;;
11829;SDS011;5972;42.134;24.718;2024-01-30T04:27:49;15.30;;;8.17;;
11829;SDS011;5972;42.134;24.718;2024-01-30T04:30:16;11.97;;;7.47;;
11829;SDS011;5972;42.134;24.718;2024-01-30T04:32:43;14.13;;;7.53;;
11829;SDS011;5972;42.134;24.718;2024-01-30T04:35:10;12.13;;;8.23;;
11829;SDS011;5972;42.134;24.718;2024-01-30T04:37:37;11.73;;;7.80;;
11829;SDS011;5972;42.134;24.718;2024-01-30T04:40:06;15.33;;;8.60;;
11829;SDS011;5972;42.134;24.718;2024-01-30T04:42:34;11.40;;;8.07;;
11829;SDS011;5972;42.134;24.718;2024-01-30T04:45:01;16.57;;;8.83;;
11829;SDS011;5972;42.134;24.718;2024-01-30T04:47:29;16.80;;;8.57;;
11829;SDS011;5972;42.134;24.718;2024-01-30T04:49:56;20.60;;;8.10;;
11829;SDS011;5972;42.134;24.718;2024-01-30T04:52:23;15.97;;;9.33;;
11829;SDS011;5972;42.134;24.718;2024-01-30T04:54:50;19.07;;;9.03;;
11829;SDS011;5972;42.134;24.718;2024-01-30T04:57:18;14.63;;;9.57;;
11829;SDS011;5972;42.134;24.718;2024-01-30T04:59:45;18.03;;;10.60;;
11829;SDS011;5972;42.134;24.718;2024-01-30T05:02:12;16.17;;;9.53;;
11829;SDS011;5972;42.134;24.718;2024-01-30T05:04:40;14.77;;;9.33;;
11829;SDS011;5972;42.134;24.718;2024-01-30T05:07:07;16.93;;;10.07;;
11829;SDS011;5972;42.134;24.718;2024-01-30T05:09:34;17.27;;;9.97;;
11829;SDS011;5972;42.134;24.718;2024-01-30T05:12:01;21.37;;;10.47;;
11829;SDS011;5972;42.134;24.718;2024-01-30T05:14:30;20.53;;;10.50;;
11829;SDS011;5972;42.134;24.718;2024-01-30T05:16:57;18.77;;;9.83;;
11829;SDS011;5972;42.134;24.718;2024-01-30T05:19:24;21.90;;;10.50;;
11829;SDS011;5972;42.134;24.718;2024-01-30T05:21:50;18.27;;;10.77;;
11829;SDS011;5972;42.134;24.718;2024-01-30T05:24:17;15.37;;;10.43;;
11829;SDS011;5972;42.134;24.718;2024-01-30T05:26:44;16.23;;;10.40;;
11829;SDS011;5972;42.134;24.718;2024-01-30T05:29:13;16.97;;;10.43;;
11829;SDS011;5972;42.134;24.718;2024-01-30T05:31:41;18.30;;;10.80;;
11829;SDS011;5972;42.134;24.718;2024-01-30T05:34:08;19.30;;;11.53;;
11829;SDS011;5972;42.134;24.718;2024-01-30T05:36:35;19.97;;;10.40;;
11829;SDS011;5972;42.134;24.718;2024-01-30T05:39:02;18.43;;;10.20;;
11829;SDS011;5972;42.134;24.718;2024-01-30T05:41:30;17.13;;;10.57;;
11829;SDS011;5972;42.134;24.718;2024-01-30T05:43:57;21.27;;;10.93;;
11829;SDS011;5972;42.134;24.718;2024-01-30T05:46:24;26.73;;;13.53;;
11829;SDS011;5972;42.134;24.718;2024-01-30T05:48:52;23.27;;;13.07;;
11829;SDS011;5972;42.134;24.718;2024-01-30T05:51:19;20.70;;;12.37;;
11829;SDS011;5972;42.134;24.718;2024-01-30T05:53:46;23.13;;;12.40;;
11829;SDS011;5972;42.134;24.718;2024-01-30T05:56:13;19.00;;;11.37;;
11829;SDS011;5972;42.134;24.718;2024-01-30T05:58:40;17.33;;;10.53;;
11829;SDS011;5972;42.134;24.718;2024-01-30T06:01:08;15.80;;;10.03;;
11829;SDS011;5972;42.134;24.718;2024-01-30T06:03:35;16.20;;;10.20;;
11829;SDS011;5972;42.134;24.718;2024-01-30T06:06:04;21.53;;;11.10;;
11829;SDS011;5972;42.134;24.718;2024-01-30T06:08:31;26.03;;;13.23;;
11829;SDS011;5972;42.134;24.718;2024-01-30T06:10:59;23.00;;;14.00;;
11829;SDS011;5972;42.134;24.718;2024-01-30T06:13:26;25.33;;;13.23;;
11829;SDS011;5972;42.134;24.718;2024-01-30T06:15:53;19.20;;;11.13;;
11829;SDS011;5972;42.134;24.718;2024-01-30T06:18:20;19.10;;;10.20;;
11829;SDS011;5972;42.134;24.718;2024-01-30T06:20:47;21.17;;;10.00;;
11829;SDS011;5972;42.134;24.718;2024-01-30T06:23:16;14.93;;;9.57;;
11829;SDS011;5972;42.134;24.718;2024-01-30T06:25:43;17.00;;;8.73;;
11829;SDS011;5972;42.134;24.718;2024-01-30T06:28:10;14.40;;;8.97;;
11829;SDS011;5972;42.134;24.718;2024-01-30T06:30:37;26.57;;;11.77;;
11829;SDS011;5972;42.134;24.718;2024-01-30T06:33:04;17.27;;;9.47;;
11829;SDS011;5972;42.134;24.718;2024-01-30T06:35:31;20.90;;;10.47;;
11829;SDS011;5972;42.134;24.718;2024-01-30T06:37:58;16.37;;;9.57;;
11829;SDS011;5972;42.134;24.718;2024-01-30T06:40:26;19.73;;;10.23;;
11829;SDS011;5972;42.134;24.718;2024-01-30T06:42:53;19.70;;;10.73;;
11829;SDS011;5972;42.134;24.718;2024-01-30T06:45:20;15.03;;;10.77;;
11829;SDS011;5972;42.134;24.718;2024-01-30T06:47:47;19.27;;;11.57;;
11829;SDS011;5972;42.134;24.718;2024-01-30T06:50:14;17.93;;;10.77;;
11829;SDS011;5972;42.134;24.718;2024-01-30T06:52:41;22.80;;;11.73;;
11829;SDS011;5972;42.134;24.718;2024-01-30T06:55:09;14.53;;;10.37;;
11829;SDS011;5972;42.134;24.718;2024-01-30T06:57:37;15.07;;;10.43;;
11829;SDS011;5972;42.134;24.718;2024-01-30T07:00:05;13.23;;;9.30;;
11829;SDS011;5972;42.134;24.718;2024-01-30T07:02:33;16.37;;;9.63;;
11829;SDS011;5972;42.134;24.718;2024-01-30T07:04:59;14.70;;;9.77;;
11829;SDS011;5972;42.134;24.718;2024-01-30T07:07:27;17.13;;;9.60;;
11829;SDS011;5972;42.134;24.718;2024-01-30T07:09:54;17.77;;;9.63;;
11829;SDS011;5972;42.134;24.718;2024-01-30T07:12:22;16.97;;;10.30;;
11829;SDS011;5972;42.134;24.718;2024-01-30T07:14:51;17.63;;;9.97;;
11829;SDS011;5972;42.134;24.718;2024-01-30T07:17:18;15.00;;;9.30;;
11829;SDS011;5972;42.134;24.718;2024-01-30T07:19:45;22.03;;;9.63;;
11829;SDS011;5972;42.134;24.718;2024-01-30T07:22:12;17.77;;;9.80;;
11829;SDS011;5972;42.134;24.718;2024-01-30T07:24:42;13.40;;;8.77;;
11829;SDS011;5972;42.134;24.718;2024-01-30T07:27:12;15.73;;;9.43;;
11829;SDS011;5972;42.134;24.718;2024-01-30T07:29:39;14.70;;;8.83;;
11829;SDS011;5972;42.134;24.718;2024-01-30T07:32:08;13.30;;;8.90;;
11829;SDS011;5972;42.134;24.718;2024-01-30T07:34:35;13.90;;;9.27;;
11829;SDS011;5972;42.134;24.718;2024-01-30T07:37:02;13.83;;;8.93;;
11829;SDS011;5972;42.134;24.718;2024-01-30T07:39:29;14.87;;;8.70;;
11829;SDS011;5972;42.134;24.718;2024-01-30T07:41:58;11.60;;;7.90;;
11829;SDS011;5972;42.134;24.718;2024-01-30T07:44:25;19.60;;;8.93;;
11829;SDS011;5972;42.134;24.718;2024-01-30T07:46:52;16.60;;;8.87;;
11829;SDS011;5972;42.134;24.718;2024-01-30T07:49:21;10.90;;;6.97;;
11829;SDS011;5972;42.134;24.718;2024-01-30T07:51:48;19.07;;;11.23;;
11829;SDS011;5972;42.134;24.718;2024-01-30T07:54:15;16.00;;;9.10;;
11829;SDS011;5972;42.134;24.718;2024-01-30T07:56:43;11.20;;;8.03;;
11829;SDS011;5972;42.134;24.718;2024-01-30T07:59:10;12.57;;;7.53;;
11829;SDS011;5972;42.134;24.718;2024-01-30T08:01:37;12.00;;;7.43;;
11829;SDS011;5972;42.134;24.718;2024-01-30T08:04:04;11.73;;;7.10;;
11829;SDS011;5972;42.134;24.718;2024-01-30T08:06:32;9.07;;;5.77;;
11829;SDS011;5972;42.134;24.718;2024-01-30T08:08:59;13.03;;;7.50;;
11829;SDS011;5972;42.134;24.718;2024-01-30T08:11:26;9.97;;;6.53;;
11829;SDS011;5972;42.134;24.718;2024-01-30T08:13:54;8.20;;;5.90;;
11829;SDS011;5972;42.134;24.718;2024-01-30T08:16:22;11.60;;;7.40;;
11829;SDS011;5972;42.134;24.718;2024-01-30T08:18:50;8.77;;;5.70;;
11829;SDS011;5972;42.134;24.718;2024-01-30T08:21:18;13.37;;;5.57;;
11829;SDS011;5972;42.134;24.718;2024-01-30T08:23:47;8.40;;;5.20;;
11829;SDS011;5972;42.134;24.718;2024-01-30T08:26:14;7.97;;;5.80;;
11829;SDS011;5972;42.134;24.718;2024-01-30T08:28:41;14.37;;;5.80;;
11829;SDS011;5972;42.134;24.718;2024-01-30T08:31:10;11.63;;;5.90;;
11829;SDS011;5972;42.134;24.718;2024-01-30T08:33:38;10.13;;;6.27;;
11829;SDS011;5972;42.134;24.718;2024-01-30T08:36:05;12.27;;;5.93;;
11829;SDS011;5972;42.134;24.718;2024-01-30T08:38:33;10.73;;;6.57;;
11829;SDS011;5972;42.134;24.718;2024-01-30T08:41:01;8.63;;;5.57;;
11829;SDS011;5972;42.134;24.718;2024-01-30T08:43:28;8.20;;;5.83;;
11829;SDS011;5972;42.134;24.718;2024-01-30T08:45:58;9.17;;;5.20;;
11829;SDS011;5972;42.134;24.718;2024-01-30T08:48:25;7.23;;;4.67;;
11829;SDS011;5972;42.134;24.718;2024-01-30T08:50:52;7.90;;;4.60;;
11829;SDS011;5972;42.134;24.718;2024-01-30T08:53:19;11.00;;;5.97;;
11829;SDS011;5972;42.134;24.718;2024-01-30T08:55:47;7.13;;;5.57;;
11829;SDS011;5972;42.134;24.718;2024-01-30T08:58:15;10.43;;;5.50;;
11829;SDS011;5972;42.134;24.718;2024-01-30T09:00:43;7.70;;;5.23;;
11829;SDS011;5972;42.134;24.718;2024-01-30T09:03:10;6.50;;;4.93;;
11829;SDS011;5972;42.134;24.718;2024-01-30T09:05:37;8.53;;;5.20;;
11829;SDS011;5972;42.134;24.718;2024-01-30T09:08:04;8.77;;;4.77;;
11829;SDS011;5972;42.134;24.718;2024-01-30T09:10:31;8.57;;;5.40;;
11829;SDS011;5972;42.134;24.718;2024-01-30T09:12:58;7.33;;;4.60;;
11829;SDS011;5972;42.134;24.718;2024-01-30T09:15:27;7.63;;;4.40;;
11829;SDS011;5972;42.134;24.718;2024-01-30T09:17:53;7.23;;;4.57;;
11829;SDS011;5972;42.134;24.718;2024-01-30T09:20:21;9.23;;;5.00;;
11829;SDS011;5972;42.134;24.718;2024-01-30T09:22:51;9.00;;;4.60;;
11829;SDS011;5972;42.134;24.718;2024-01-30T09:25:18;10.70;;;5.03;;
11829;SDS011;5972;42.134;24.718;2024-01-30T09:27:45;8.67;;;5.03;;
11829;SDS011;5972;42.134;24.718;2024-01-30T09:30:12;10.33;;;6.03;;
11829;SDS011;5972;42.134;24.718;2024-01-30T09:32:41;12.43;;;6.67;;
11829;SDS011;5972;42.134;24.718;2024-01-30T09:35:08;9.80;;;6.17;;
11829;SDS011;5972;42.134;24.718;2024-01-30T09:37:35;10.13;;;6.00;;
11829;SDS011;5972;42.134;24.718;2024-01-30T09:40:02;9.77;;;6.40;;
11829;SDS011;5972;42.134;24.718;2024-01-30T09:42:33;10.00;;;6.40;;
11829;SDS011;5972;42.134;24.718;2024-01-30T09:45:01;10.80;;;6.73;;
11829;SDS011;5972;42.134;24.718;2024-01-30T09:47:30;17.87;;;7.80;;
11829;SDS011;5972;42.134;24.718;2024-01-30T09:49:59;14.20;;;8.03;;
11829;SDS011;5972;42.134;24.718;2024-01-30T09:52:28;14.57;;;8.33;;
11829;SDS011;5972;42.134;24.718;2024-01-30T09:54:55;23.83;;;8.70;;
11829;SDS011;5972;42.134;24.718;2024-01-30T09:57:25;14.43;;;8.30;;
11829;SDS011;5972;42.134;24.718;2024-01-30T09:59:52;11.57;;;7.53;;
11829;SDS011;5972;42.134;24.718;2024-01-30T10:02:20;13.97;;;8.03;;
11829;SDS011;5972;42.134;24.718;2024-01-30T10:04:47;12.77;;;7.63;;
11829;SDS011;5972;42.134;24.718;2024-01-30T10:07:16;13.77;;;7.03;;
11829;SDS011;5972;42.134;24.718;2024-01-30T10:09:43;15.57;;;7.73;;
11829;SDS011;5972;42.134;24.718;2024-01-30T10:12:11;10.23;;;6.97;;
11829;SDS011;5972;42.134;24.718;2024-01-30T10:14:38;14.20;;;7.27;;
11829;SDS011;5972;42.134;24.718;2024-01-30T10:17:06;11.83;;;6.70;;
11829;SDS011;5972;42.134;24.718;2024-01-30T10:19:34;13.77;;;6.50;;
11829;SDS011;5972;42.134;24.718;2024-01-30T10:22:00;14.70;;;6.60;;
11829;SDS011;5972;42.134;24.718;2024-01-30T10:24:29;11.97;;;6.63;;
11829;SDS011;5972;42.134;24.718;2024-01-30T10:26:56;9.60;;;6.63;;
11829;SDS011;5972;42.134;24.718;2024-01-30T10:29:24;9.47;;;6.87;;
11829;SDS011;5972;42.134;24.718;2024-01-30T10:31:57;14.43;;;7.90;;
11829;SDS011;5972;42.134;24.718;2024-01-30T10:34:25;11.70;;;7.47;;
11829;SDS011;5972;42.134;24.718;2024-01-30T10:36:55;9.77;;;6.80;;
11829;SDS011;5972;42.134;24.718;2024-01-30T10:39:29;12.03;;;7.27;;
11829;SDS011;5972;42.134;24.718;2024-01-30T10:41:59;13.10;;;7.33;;
11829;SDS011;5972;42.134;24.718;2024-01-30T10:44:33;10.13;;;6.50;;
11829;SDS011;5972;42.134;24.718;2024-01-30T10:47:06;17.00;;;6.43;;
11829;SDS011;5972;42.134;24.718;2024-01-30T10:49:36;12.37;;;6.73;;
11829;SDS011;5972;42.134;24.718;2024-01-30T10:52:03;9.50;;;5.67;;
11829;SDS011;5972;42.134;24.718;2024-01-30T10:54:33;8.27;;;6.10;;
11829;SDS011;5972;42.134;24.718;2024-01-30T10:57:03;10.67;;;6.20;;
11829;SDS011;5972;42.134;24.718;2024-01-30T10:59:30;8.77;;;4.93;;
11829;SDS011;5972;42.134;24.718;2024-01-30T11:02:01;7.20;;;5.00;;
11829;SDS011;5972;42.134;24.718;2024-01-30T11:04:35;6.80;;;3.80;;
11829;SDS011;5972;42.134;24.718;2024-01-30T11:07:03;8.00;;;4.80;;
11829;SDS011;5972;42.134;24.718;2024-01-30T11:09:47;5.67;;;4.30;;
11829;SDS011;5972;42.134;24.718;2024-01-30T11:12:22;4.27;;;3.43;;
11829;SDS011;5972;42.134;24.718;2024-01-30T11:14:50;4.00;;;3.10;;
11829;SDS011;5972;42.134;24.718;2024-01-30T11:17:28;5.60;;;3.70;;
11829;SDS011;5972;42.134;24.718;2024-01-30T11:20:06;4.77;;;3.80;;
11829;SDS011;5972;42.134;24.718;2024-01-30T11:22:37;5.47;;;4.20;;
11829;SDS011;5972;42.134;24.718;2024-01-30T11:25:05;9.27;;;4.00;;
11829;SDS011;5972;42.134;24.718;2024-01-30T11:27:33;5.70;;;4.67;;
11829;SDS011;5972;42.134;24.718;2024-01-30T11:30:01;6.80;;;4.47;;
11829;SDS011;5972;42.134;24.718;2024-01-30T11:32:28;6.68;;;4.47;;
11829;SDS011;5972;42.134;24.718;2024-01-30T11:34:55;6.07;;;4.20;;
11829;SDS011;5972;42.134;24.718;2024-01-30T11:37:22;5.03;;;4.38;;
11829;SDS011;5972;42.134;24.718;2024-01-30T11:39:52;7.35;;;4.47;;
11829;SDS011;5972;42.134;24.718;2024-01-30T11:42:22;6.93;;;4.28;;
11829;SDS011;5972;42.134;24.718;2024-01-30T11:44:53;5.68;;;3.90;;
11829;SDS011;5972;42.134;24.718;2024-01-30T11:47:20;4.95;;;3.22;;
11829;SDS011;5972;42.134;24.718;2024-01-30T11:49:48;4.07;;;3.55;;
11829;SDS011;5972;42.134;24.718;2024-01-30T11:52:15;4.38;;;3.17;;
11829;SDS011;5972;42.134;24.718;2024-01-30T11:54:43;5.30;;;3.25;;
11829;SDS011;5972;42.134;24.718;2024-01-30T11:57:10;3.17;;;2.65;;
11829;SDS011;5972;42.134;24.718;2024-01-30T11:59:39;3.40;;;2.92;;
11829;SDS011;5972;42.134;24.718;2024-01-30T12:02:06;6.90;;;3.50;;
11829;SDS011;5972;42.134;24.718;2024-01-30T12:04:33;4.00;;;3.10;;
11829;SDS011;5972;42.134;24.718;2024-01-30T12:07:00;5.18;;;3.20;;
11829;SDS011;5972;42.134;24.718;2024-01-30T12:09:30;3.13;;;2.50;;
11829;SDS011;5972;42.134;24.718;2024-01-30T12:11:57;2.92;;;2.45;;
11829;SDS011;5972;42.134;24.718;2024-01-30T12:14:25;2.60;;;2.40;;
11829;SDS011;5972;42.134;24.718;2024-01-30T12:16:54;3.70;;;2.63;;
11829;SDS011;5972;42.134;24.718;2024-01-30T12:19:22;3.08;;;2.75;;
11829;SDS011;5972;42.134;24.718;2024-01-30T12:21:53;5.20;;;3.30;;
11829;SDS011;5972;42.134;24.718;2024-01-30T12:24:22;4.03;;;3.00;;
11829;SDS011;5972;42.134;24.718;2024-01-30T12:26:49;4.90;;;3.00;;
11829;SDS011;5972;42.134;24.718;2024-01-30T12:29:17;3.43;;;3.07;;
11829;SDS011;5972;42.134;24.718;2024-01-30T12:31:44;3.90;;;2.77;;
11829;SDS011;5972;42.134;24.718;2024-01-30T12:34:14;7.87;;;2.93;;
11829;SDS011;5972;42.134;24.718;2024-01-30T12:36:42;6.50;;;3.40;;
11829;SDS011;5972;42.134;24.718;2024-01-30T12:39:10;3.50;;;3.20;;
11829;SDS011;5972;42.134;24.718;2024-01-30T12:41:39;4.13;;;3.10;;
11829;SDS011;5972;42.134;24.718;2024-01-30T12:44:06;3.50;;;2.93;;
11829;SDS011;5972;42.134;24.718;2024-01-30T12:46:34;3.60;;;3.20;;
11829;SDS011;5972;42.134;24.718;2024-01-30T12:49:01;4.20;;;3.10;;
11829;SDS011;5972;42.134;24.718;2024-01-30T12:51:30;5.40;;;3.00;;
11829;SDS011;5972;42.134;24.718;2024-01-30T12:54:04;4.47;;;3.50;;
11829;SDS011;5972;42.134;24.718;2024-01-30T12:56:32;4.60;;;3.43;;
11829;SDS011;5972;42.134;24.718;2024-01-30T12:58:59;11.07;;;3.40;;
11829;SDS011;5972;42.134;24.718;2024-01-30T13:01:26;4.63;;;3.67;;
11829;SDS011;5972;42.134;24.718;2024-01-30T13:03:54;4.10;;;3.60;;
11829;SDS011;5972;42.134;24.718;2024-01-30T13:06:22;3.70;;;3.20;;
11829;SDS011;5972;42.134;24.718;2024-01-30T13:08:51;6.63;;;3.80;;
11829;SDS011;5972;42.134;24.718;2024-01-30T13:11:18;8.63;;;7.30;;
11829;SDS011;5972;42.134;24.718;2024-01-30T13:13:45;6.00;;;4.30;;
11829;SDS011;5972;42.134;24.718;2024-01-30T13:16:15;5.20;;;4.07;;
11829;SDS011;5972;42.134;24.718;2024-01-30T13:18:42;8.30;;;5.20;;
11829;SDS011;5972;42.134;24.718;2024-01-30T13:21:15;10.10;;;5.20;;
11829;SDS011;5972;42.134;24.718;2024-01-30T13:23:42;10.73;;;4.97;;
11829;SDS011;5972;42.134;24.718;2024-01-30T13:26:11;6.53;;;4.33;;
11829;SDS011;5972;42.134;24.718;2024-01-30T13:28:38;12.47;;;4.60;;
11829;SDS011;5972;42.134;24.718;2024-01-30T13:31:05;4.83;;;4.03;;
11829;SDS011;5972;42.134;24.718;2024-01-30T13:33:32;7.93;;;4.87;;
11829;SDS011;5972;42.134;24.718;2024-01-30T13:36:04;8.90;;;4.20;;
11829;SDS011;5972;42.134;24.718;2024-01-30T13:38:32;10.87;;;4.60;;
11829;SDS011;5972;42.134;24.718;2024-01-30T13:40:59;8.67;;;4.60;;
11829;SDS011;5972;42.134;24.718;2024-01-30T13:43:28;6.83;;;5.30;;
11829;SDS011;5972;42.134;24.718;2024-01-30T13:45:55;7.20;;;4.80;;
11829;SDS011;5972;42.134;24.718;2024-01-30T13:48:22;6.33;;;4.20;;
11829;SDS011;5972;42.134;24.718;2024-01-30T13:50:49;4.77;;;3.97;;
11829;SDS011;5972;42.134;24.718;2024-01-30T13:53:16;6.00;;;4.37;;
11829;SDS011;5972;42.134;24.718;2024-01-30T13:55:43;7.13;;;4.33;;
11829;SDS011;5972;42.134;24.718;2024-01-30T13:58:10;8.57;;;5.03;;
11829;SDS011;5972;42.134;24.718;2024-01-30T14:00:39;7.00;;;4.27;;
11829;SDS011;5972;42.134;24.718;2024-01-30T14:03:07;6.83;;;4.50;;
11829;SDS011;5972;42.134;24.718;2024-01-30T14:05:34;7.10;;;4.20;;
11829;SDS011;5972;42.134;24.718;2024-01-30T14:08:01;5.53;;;4.30;;
11829;SDS011;5972;42.134;24.718;2024-01-30T14:10:28;4.90;;;3.90;;
11829;SDS011;5972;42.134;24.718;2024-01-30T14:12:55;6.30;;;3.63;;
11829;SDS011;5972;42.134;24.718;2024-01-30T14:15:23;9.13;;;4.30;;
11829;SDS011;5972;42.134;24.718;2024-01-30T14:17:51;5.80;;;4.43;;
11829;SDS011;5972;42.134;24.718;2024-01-30T14:20:18;5.53;;;3.97;;
11829;SDS011;5972;42.134;24.718;2024-01-30T14:22:45;5.90;;;3.80;;
11829;SDS011;5972;42.134;24.718;2024-01-30T14:25:12;5.80;;;4.03;;
11829;SDS011;5972;42.134;24.718;2024-01-30T14:27:39;7.17;;;4.53;;
11829;SDS011;5972;42.134;24.718;2024-01-30T14:30:06;6.47;;;4.70;;
11829;SDS011;5972;42.134;24.718;2024-01-30T14:32:37;11.23;;;5.00;;
11829;SDS011;5972;42.134;24.718;2024-01-30T14:35:07;5.70;;;4.40;;
11829;SDS011;5972;42.134;24.718;2024-01-30T14:37:34;6.40;;;5.07;;
11829;SDS011;5972;42.134;24.718;2024-01-30T14:40:01;8.40;;;4.40;;
11829;SDS011;5972;42.134;24.718;2024-01-30T14:42:28;15.57;;;4.80;;